createdAt,value
2019-03-20T00:00:20.471Z,112.30
2019-03-20T00:02:49.630Z,149.00
2019-03-20T00:05:18.126Z,155.83
2019-03-20T00:07:46.718Z,143.63
2019-03-20T00:10:15.288Z,138.10
2019-03-20T00:12:43.814Z,134.77
2019-03-20T00:15:13.729Z,123.93
2019-03-20T00:17:42.314Z,132.03
2019-03-20T00:20:11.951Z,107.97
2019-03-20T00:22:42.865Z,115.37
2019-03-20T00:25:11.283Z,94.87
2019-03-20T00:27:39.852Z,109.97
2019-03-20T00:30:18.261Z,106.03
2019-03-20T00:32:46.952Z,94.03
2019-03-20T00:35:15.500Z,116.40
2019-03-20T00:37:44.107Z,97.87
2019-03-20T00:40:17.358Z,101.67
2019-03-20T00:42:45.859Z,95.17
2019-03-20T00:45:21.994Z,110.70
2019-03-20T00:47:50.470Z,97.20
2019-03-20T00:50:19.724Z,98.80
2019-03-20T00:52:48.255Z,103.97
2019-03-20T00:55:17.586Z,104.43
2019-03-20T00:57:46.138Z,98.87
2019-03-20T01:00:17.110Z,97.50
2019-03-20T01:02:45.660Z,93.20
2019-03-20T01:05:14.605Z,93.97
2019-03-20T01:07:43.308Z,98.20
2019-03-20T01:10:16.607Z,97.63
2019-03-20T01:12:45.083Z,100.63
2019-03-20T01:15:13.691Z,90.10
2019-03-20T01:17:42.257Z,102.97
2019-03-20T01:20:13.506Z,95.80
2019-03-20T01:22:42.159Z,95.07
2019-03-20T01:25:11.116Z,99.90
2019-03-20T01:27:39.606Z,105.07
2019-03-20T01:30:15.473Z,96.97
2019-03-20T01:32:44.100Z,94.90
2019-03-20T01:35:23.304Z,98.77
2019-03-20T01:37:42.762Z,100.53
2019-03-20T01:40:11.315Z,97.67
2019-03-20T01:42:39.807Z,101.60
2019-03-20T01:45:08.415Z,99.03
2019-03-20T01:47:37.057Z,97.87
2019-03-20T01:50:06.625Z,94.40
2019-03-20T01:52:35.142Z,93.67
2019-03-20T01:55:03.691Z,96.43
2019-03-20T01:57:32.183Z,94.00
2019-03-20T02:00:00.778Z,97.13
2019-03-20T02:02:29.259Z,100.30
2019-03-20T02:04:57.750Z,94.60
2019-03-20T02:07:26.344Z,89.17
2019-03-20T02:09:54.894Z,85.63
2019-03-20T02:12:23.309Z,96.27
2019-03-20T02:14:51.831Z,97.10
2019-03-20T02:17:20.395Z,92.40
2019-03-20T02:19:48.970Z,86.13
2019-03-20T02:22:17.499Z,90.30
2019-03-20T02:24:46.060Z,93.00
2019-03-20T02:27:14.488Z,89.80
2019-03-20T02:29:42.945Z,98.47
2019-03-20T02:32:11.439Z,104.33
2019-03-20T02:34:40.028Z,105.00
2019-03-20T02:37:08.478Z,100.17
2019-03-20T02:39:37.025Z,106.10
2019-03-20T02:42:05.448Z,104.13
2019-03-20T02:44:33.910Z,103.83
2019-03-20T02:47:02.399Z,102.27
2019-03-20T02:49:30.929Z,99.33
2019-03-20T02:51:59.416Z,93.10
2019-03-20T02:54:29.466Z,91.53
2019-03-20T02:56:57.980Z,96.63
2019-03-20T02:59:26.504Z,90.43
2019-03-20T03:01:54.996Z,85.60
2019-03-20T03:04:23.500Z,83.13
2019-03-20T03:06:52.095Z,87.90
2019-03-20T03:09:20.573Z,84.23
2019-03-20T03:11:49.071Z,82.33
2019-03-20T03:14:17.659Z,72.23
2019-03-20T03:16:46.089Z,75.17
2019-03-20T03:19:14.549Z,65.37
2019-03-20T03:21:43.071Z,66.97
2019-03-20T03:24:11.565Z,68.93
2019-03-20T03:26:40.040Z,61.90
2019-03-20T03:29:08.559Z,69.57
2019-03-20T03:31:37.060Z,60.07
2019-03-20T03:34:05.542Z,67.13
2019-03-20T03:36:34.135Z,67.67
2019-03-20T03:39:02.635Z,50.23
2019-03-20T03:41:31.129Z,60.70
2019-03-20T03:43:59.648Z,60.07
2019-03-20T03:46:28.051Z,66.53
2019-03-20T03:48:56.534Z,61.10
2019-03-20T03:51:25.064Z,58.13
2019-03-20T03:53:53.633Z,61.80
2019-03-20T03:56:22.203Z,62.40
2019-03-20T03:58:50.778Z,67.07
2019-03-20T04:01:19.260Z,61.70
2019-03-20T04:03:47.820Z,63.40
2019-03-20T04:06:16.353Z,66.20
2019-03-20T04:08:44.851Z,63.47
2019-03-20T04:11:14.290Z,72.30
2019-03-20T04:13:42.813Z,67.17
2019-03-20T04:16:11.362Z,66.37
2019-03-20T04:18:39.786Z,71.20
2019-03-20T04:21:08.307Z,66.77
2019-03-20T04:23:36.865Z,51.17
2019-03-20T04:26:05.351Z,64.07
2019-03-20T04:28:33.899Z,48.90
2019-03-20T04:31:02.507Z,61.23
2019-03-20T04:33:30.993Z,66.20
2019-03-20T04:35:59.531Z,53.50
2019-03-20T04:38:27.922Z,59.20
2019-03-20T04:40:56.420Z,60.47
2019-03-20T04:43:25.150Z,65.07
2019-03-20T04:45:53.641Z,49.67
2019-03-20T04:48:22.202Z,45.77
2019-03-20T04:50:50.799Z,52.77
2019-03-20T04:53:19.298Z,51.73
2019-03-20T04:55:47.930Z,55.43
2019-03-20T04:58:16.389Z,56.57
2019-03-20T05:00:44.929Z,47.57
2019-03-20T05:03:13.426Z,45.90
2019-03-20T05:05:41.955Z,49.30
2019-03-20T05:08:10.506Z,52.00
2019-03-20T05:10:39.062Z,60.27
2019-03-20T05:13:08.015Z,51.90
2019-03-20T05:15:36.503Z,43.70
2019-03-20T05:18:05.138Z,53.23
2019-03-20T05:20:33.662Z,46.97
2019-03-20T05:23:02.221Z,54.83
2019-03-20T05:25:30.650Z,49.53
2019-03-20T05:28:00.817Z,55.90
2019-03-20T05:30:29.310Z,45.43
2019-03-20T05:32:57.797Z,50.47
2019-03-20T05:35:26.463Z,58.07
2019-03-20T05:37:54.883Z,55.13
2019-03-20T05:40:23.439Z,57.63
2019-03-20T05:42:52.110Z,58.33
2019-03-20T05:45:20.597Z,56.17
2019-03-20T05:47:49.087Z,58.00
2019-03-20T05:50:18.163Z,54.17
2019-03-20T05:52:46.781Z,51.77
2019-03-20T05:55:15.337Z,56.17
2019-03-20T05:57:43.863Z,58.00
2019-03-20T06:00:17.762Z,61.50
2019-03-20T06:02:46.329Z,56.50
2019-03-20T06:05:14.933Z,64.20
2019-03-20T06:07:43.413Z,63.73
2019-03-20T06:10:13.570Z,50.77
2019-03-20T06:12:42.932Z,53.70
2019-03-20T06:15:11.561Z,60.13
2019-03-20T06:17:39.981Z,59.10
2019-03-20T06:20:10.653Z,57.50
2019-03-20T06:22:39.133Z,53.93
2019-03-20T06:25:09.471Z,66.30
2019-03-20T06:27:38.057Z,52.70
2019-03-20T06:30:17.712Z,50.37
2019-03-20T06:32:46.229Z,63.03
2019-03-20T06:35:14.785Z,64.20
2019-03-20T06:37:43.276Z,58.23
2019-03-20T06:40:14.261Z,64.20
2019-03-20T06:42:42.667Z,54.43
2019-03-20T06:45:18.849Z,54.70
2019-03-20T06:47:47.347Z,51.23
2019-03-20T06:50:21.771Z,55.57
2019-03-20T06:52:50.294Z,71.90
2019-03-20T06:55:18.707Z,51.53
2019-03-20T06:57:47.186Z,58.73
2019-03-20T07:00:35.670Z,56.50
2019-03-20T07:03:07.425Z,57.00
2019-03-20T07:05:51.242Z,66.37
2019-03-20T07:08:22.374Z,64.13
2019-03-20T07:11:08.558Z,60.20
2019-03-20T07:13:36.968Z,50.67
2019-03-20T07:16:06.454Z,52.33
2019-03-20T07:18:35.071Z,55.00
2019-03-20T07:21:03.544Z,55.90
2019-03-20T07:23:32.039Z,56.50
2019-03-20T07:26:00.559Z,54.93
2019-03-20T07:28:29.052Z,244.30
2019-03-20T07:30:57.536Z,61.23
2019-03-20T07:33:26.863Z,68.80
2019-03-20T07:35:55.389Z,106.37
2019-03-20T07:38:23.950Z,149.87
2019-03-20T07:40:52.510Z,79.87
2019-03-20T07:43:21.178Z,132.97
2019-03-20T07:45:49.634Z,210.63
2019-03-20T07:48:22.521Z,128.57
2019-03-20T07:50:48.301Z,249.73
2019-03-20T07:53:16.811Z,283.30
2019-03-20T07:55:45.164Z,250.90
2019-03-20T07:58:16.756Z,234.57
2019-03-20T08:00:45.479Z,246.67
2019-03-20T08:03:14.126Z,237.73
2019-03-20T08:05:42.878Z,259.13
2019-03-20T08:08:11.430Z,265.13
2019-03-20T08:10:39.849Z,233.80
2019-03-20T08:13:08.486Z,259.90
2019-03-20T08:15:36.983Z,242.53
2019-03-20T08:18:06.509Z,256.87
2019-03-20T08:20:34.685Z,215.87
2019-03-20T08:23:03.252Z,212.97
2019-03-20T08:25:31.856Z,222.80
2019-03-20T08:28:00.349Z,196.53
2019-03-20T08:30:28.841Z,75.97
2019-03-20T08:32:57.388Z,113.97
2019-03-20T08:35:25.957Z,148.17
2019-03-20T08:37:54.588Z,174.77
2019-03-20T08:40:23.129Z,72.50
2019-03-20T08:42:51.622Z,37.93
2019-03-20T08:45:20.205Z,33.07
2019-03-20T08:47:48.775Z,42.13
2019-03-20T08:50:23.315Z,37.57
2019-03-20T08:52:52.610Z,39.90
2019-03-20T08:55:21.800Z,37.53
2019-03-20T08:57:49.969Z,131.13
2019-03-20T09:00:24.646Z,188.30
2019-03-20T09:02:52.852Z,275.50
2019-03-20T09:05:21.381Z,190.17
2019-03-20T09:07:49.904Z,204.40
2019-03-20T09:10:23.312Z,185.77
2019-03-20T09:12:51.546Z,194.00
2019-03-20T09:15:20.038Z,194.67
2019-03-20T09:17:48.631Z,317.53
2019-03-20T09:20:17.338Z,217.47
2019-03-20T09:22:46.015Z,203.23
2019-03-20T09:25:22.087Z,184.83
2019-03-20T09:27:50.785Z,198.17
2019-03-20T09:30:26.492Z,205.07
2019-03-20T09:32:54.786Z,192.50
2019-03-20T09:35:23.338Z,190.13
2019-03-20T09:37:52.782Z,189.50
2019-03-20T09:40:27.402Z,187.13
2019-03-20T09:42:55.589Z,180.60
2019-03-20T09:45:24.450Z,179.90
2019-03-20T09:47:52.915Z,185.43
2019-03-20T09:50:22.803Z,179.07
2019-03-20T09:52:51.352Z,199.17
2019-03-20T09:55:20.033Z,181.73
2019-03-20T09:57:48.589Z,191.03
2019-03-20T10:00:18.824Z,186.70
2019-03-20T10:02:47.343Z,180.03
2019-03-20T10:05:16.003Z,171.63
2019-03-20T10:07:44.571Z,185.70
2019-03-20T10:10:27.227Z,176.87
2019-03-20T10:12:55.455Z,183.50
2019-03-20T10:15:28.054Z,167.20
2019-03-20T10:17:56.329Z,169.30
2019-03-20T10:20:24.588Z,172.67
2019-03-20T10:22:53.079Z,166.53
2019-03-20T10:25:21.771Z,179.37
2019-03-20T10:27:52.518Z,185.53
2019-03-20T10:30:27.802Z,181.50
2019-03-20T10:32:56.436Z,181.87
2019-03-20T10:35:24.936Z,181.87
2019-03-20T10:37:53.519Z,195.47
2019-03-20T10:40:22.535Z,192.37
2019-03-20T10:42:51.096Z,190.23
2019-03-20T10:45:23.120Z,189.53
2019-03-20T10:47:53.237Z,200.47
2019-03-20T10:50:29.514Z,193.67
2019-03-20T10:52:58.168Z,191.53
2019-03-20T10:55:26.779Z,185.90
2019-03-20T10:57:55.386Z,179.77
2019-03-20T11:00:30.043Z,191.63
2019-03-20T11:02:58.728Z,207.40
2019-03-20T11:05:27.395Z,195.50
2019-03-20T11:07:55.952Z,189.37
2019-03-20T11:10:25.373Z,173.70
2019-03-20T11:12:53.899Z,178.03
2019-03-20T11:15:22.510Z,182.17
2019-03-20T11:17:51.195Z,174.03
2019-03-20T11:20:20.863Z,176.23
2019-03-20T11:22:49.495Z,184.20
2019-03-20T11:25:23.807Z,187.13
2019-03-20T11:27:52.440Z,183.67
2019-03-20T11:30:27.730Z,185.70
2019-03-20T11:32:56.381Z,185.57
2019-03-20T11:35:24.965Z,184.73
2019-03-20T11:37:53.710Z,189.77
2019-03-20T11:40:28.300Z,199.60
2019-03-20T11:42:57.038Z,189.77
2019-03-20T11:45:26.000Z,192.00
2019-03-20T11:47:54.507Z,189.43
2019-03-20T11:50:28.800Z,179.60
2019-03-20T11:52:57.505Z,189.73
2019-03-20T11:55:26.201Z,193.00
2019-03-20T11:57:54.944Z,184.10
2019-03-20T12:00:23.928Z,188.97
2019-03-20T12:02:52.505Z,207.40
2019-03-20T12:05:21.084Z,195.60
2019-03-20T12:07:49.693Z,193.30
2019-03-20T12:10:27.042Z,188.23
2019-03-20T12:12:55.788Z,171.40
2019-03-20T12:15:24.346Z,98.87
2019-03-20T12:17:53.033Z,48.83
2019-03-20T12:20:24.845Z,73.37
2019-03-20T12:22:53.546Z,49.93
2019-03-20T12:25:28.471Z,134.20
2019-03-20T12:27:57.028Z,157.80
2019-03-20T12:30:34.040Z,134.17
2019-03-20T12:33:02.597Z,163.47
2019-03-20T12:35:40.487Z,182.33
2019-03-20T12:38:14.877Z,123.50
2019-03-20T12:40:39.447Z,115.07
2019-03-20T12:43:07.991Z,113.47
2019-03-20T12:45:40.314Z,85.97
2019-03-20T12:48:14.579Z,93.03
2019-03-20T12:50:43.221Z,147.13
2019-03-20T12:53:18.256Z,118.97
2019-03-20T12:55:47.058Z,91.00
2019-03-20T12:58:16.056Z,178.97
2019-03-20T13:05:41.914Z,137.37
2019-03-20T13:08:10.529Z,70.93
2019-03-20T13:10:39.233Z,142.27
2019-03-20T13:13:08.055Z,200.93
2019-03-20T13:15:36.841Z,199.50
2019-03-20T13:18:05.453Z,215.53
2019-03-20T13:20:34.269Z,201.07
2019-03-20T13:23:35.337Z,190.17
2019-03-20T13:26:04.966Z,134.43
2019-03-20T13:28:33.620Z,141.27
2019-03-20T13:31:08.304Z,114.00
2019-03-20T13:33:36.938Z,62.23
2019-03-20T13:36:06.591Z,63.77
2019-03-20T13:38:35.293Z,67.73
2019-03-20T13:41:03.871Z,52.17
2019-03-20T13:43:32.490Z,20.40
2019-03-20T13:46:01.169Z,23.37
2019-03-20T13:48:31.199Z,67.47
2019-03-20T13:50:59.769Z,92.70
2019-03-20T13:53:28.385Z,41.07
2019-03-20T13:55:56.899Z,66.63
2019-03-20T13:58:25.560Z,106.87
2019-03-20T14:00:54.174Z,145.73
2019-03-20T14:03:22.822Z,162.03
2019-03-20T14:05:51.491Z,159.47
2019-03-20T14:08:21.660Z,165.27
2019-03-20T14:10:50.876Z,311.20
2019-03-20T14:13:21.268Z,168.27
2019-03-20T14:15:49.894Z,183.87
2019-03-20T14:18:18.517Z,149.47
2019-03-20T14:20:47.077Z,119.90
2019-03-20T14:23:15.772Z,73.07
2019-03-20T14:25:44.319Z,76.10
2019-03-20T14:28:12.957Z,89.37
2019-03-20T14:30:41.904Z,106.03
2019-03-20T14:33:10.390Z,112.50
2019-03-20T14:35:39.027Z,63.57
2019-03-20T14:38:07.642Z,84.40
2019-03-20T14:40:37.001Z,159.03
2019-03-20T14:43:05.844Z,144.97
2019-03-20T14:45:34.536Z,84.87
2019-03-20T14:48:03.190Z,50.47
2019-03-20T14:50:33.658Z,38.07
2019-03-20T14:53:02.713Z,121.23
2019-03-20T14:55:31.359Z,146.27
2019-03-20T14:57:59.926Z,103.40
2019-03-20T15:00:30.367Z,101.10
2019-03-20T15:02:59.050Z,126.73
2019-03-20T15:05:27.698Z,111.50
2019-03-20T15:07:56.387Z,121.97
2019-03-20T15:10:28.244Z,85.03
2019-03-20T15:12:57.024Z,146.37
2019-03-20T15:15:37.563Z,108.63
2019-03-20T15:18:07.109Z,201.73
2019-03-20T15:20:35.748Z,196.97
2019-03-20T15:23:04.425Z,203.23
2019-03-20T15:25:32.997Z,189.90
2019-03-20T15:28:01.565Z,160.23
2019-03-20T15:30:30.295Z,133.03
2019-03-20T15:32:58.823Z,96.87
2019-03-20T15:35:28.713Z,110.90
2019-03-20T15:37:57.341Z,122.90
2019-03-20T15:40:26.976Z,202.23
2019-03-20T15:42:55.731Z,210.43
2019-03-20T15:45:24.409Z,195.57
2019-03-20T15:47:53.027Z,196.13
2019-03-20T15:50:25.956Z,192.97
2019-03-20T15:52:54.623Z,205.77
2019-03-20T15:55:34.519Z,217.40
2019-03-20T15:58:03.354Z,132.90
2019-03-20T16:00:31.970Z,202.37
2019-03-20T16:03:06.402Z,113.90
2019-03-20T16:05:35.100Z,105.00
2019-03-20T16:08:03.607Z,110.17
2019-03-20T16:10:32.348Z,140.40
2019-03-20T16:13:04.450Z,103.37
2019-03-20T16:15:34.713Z,61.87
2019-03-20T16:18:03.447Z,127.33
2019-03-20T16:20:32.118Z,112.57
2019-03-20T16:23:00.766Z,109.47
2019-03-20T16:25:29.468Z,80.63
2019-03-20T16:27:58.147Z,91.80
2019-03-20T16:30:33.705Z,108.73
2019-03-20T16:33:02.492Z,104.50
2019-03-20T16:35:31.258Z,71.10
2019-03-20T16:38:00.021Z,102.73
2019-03-20T16:40:36.716Z,88.23
2019-03-20T16:43:05.761Z,71.90
2019-03-20T16:45:40.083Z,81.83
2019-03-20T16:48:08.757Z,79.83
2019-03-20T16:50:37.474Z,117.03
2019-03-20T16:53:06.103Z,66.30
2019-03-20T16:55:35.132Z,32.27
2019-03-20T16:58:03.865Z,24.87
2019-03-20T17:00:34.742Z,20.93
2019-03-20T17:03:03.496Z,20.87
2019-03-20T17:05:32.312Z,14.87
2019-03-20T17:08:00.875Z,19.00
2019-03-20T17:10:39.882Z,44.27
2019-03-20T17:13:08.868Z,32.10
2019-03-20T17:15:41.649Z,36.53
2019-03-20T17:18:10.415Z,38.73
2019-03-20T17:20:39.042Z,27.70
2019-03-20T17:23:07.992Z,54.07
2019-03-20T17:25:36.927Z,80.63
2019-03-20T17:28:06.193Z,47.07
2019-03-20T17:30:37.493Z,55.60
2019-03-20T17:33:08.727Z,70.47
2019-03-20T17:35:38.581Z,53.77
2019-03-20T17:38:07.261Z,40.57
2019-03-20T17:40:36.095Z,43.30
2019-03-20T17:43:05.329Z,43.93
2019-03-20T17:45:34.018Z,54.60
2019-03-20T17:48:02.701Z,50.80
2019-03-20T17:50:32.313Z,56.93
2019-03-20T17:53:02.695Z,45.00
2019-03-20T17:55:31.540Z,28.53
2019-03-20T17:58:00.808Z,33.40
2019-03-20T18:00:38.767Z,53.03
2019-03-20T18:03:07.793Z,34.73
2019-03-20T18:05:36.622Z,43.90
2019-03-20T18:08:07.156Z,58.17
2019-03-20T18:10:36.055Z,64.70
2019-03-20T18:13:06.597Z,64.27
2019-03-20T18:15:35.260Z,66.27
2019-03-20T18:18:03.923Z,80.97
2019-03-20T18:20:32.538Z,83.37
2019-03-20T18:23:01.267Z,99.97
2019-03-20T18:25:29.932Z,95.50
2019-03-20T18:27:58.577Z,90.60
2019-03-20T18:30:29.156Z,71.67
2019-03-20T18:32:57.768Z,73.17
2019-03-20T18:35:26.577Z,78.27
2019-03-20T18:37:55.497Z,74.57
2019-03-20T18:40:28.333Z,53.80
2019-03-20T18:42:57.480Z,54.27
2019-03-20T18:45:27.151Z,41.93
2019-03-20T18:47:57.781Z,48.93
2019-03-20T18:50:26.408Z,42.93
2019-03-20T18:52:55.109Z,41.70
2019-03-20T18:55:24.048Z,44.70
2019-03-20T18:57:52.972Z,46.57
2019-03-20T19:00:30.039Z,47.27
2019-03-20T19:03:13.772Z,64.93
2019-03-20T19:06:09.655Z,60.13
2019-03-20T19:08:38.633Z,59.73
2019-03-20T19:11:07.253Z,75.37
2019-03-20T19:13:35.900Z,77.43
2019-03-20T19:16:05.025Z,87.60
2019-03-20T19:18:33.992Z,107.13
2019-03-20T19:21:02.976Z,128.47
2019-03-20T19:23:31.723Z,86.60
2019-03-20T19:26:00.518Z,99.73
2019-03-20T19:28:29.631Z,123.53
2019-03-20T19:30:58.404Z,115.97
2019-03-20T19:33:28.973Z,99.07
2019-03-20T19:35:59.199Z,86.87
2019-03-20T19:38:34.897Z,104.27
2019-03-20T19:40:59.233Z,104.73
2019-03-20T19:43:28.053Z,79.20
2019-03-20T19:45:58.719Z,101.70
2019-03-20T19:48:29.464Z,76.47
2019-03-20T19:50:58.248Z,89.23
2019-03-20T19:53:26.984Z,79.97
2019-03-20T19:55:56.441Z,94.67
2019-03-20T19:58:27.271Z,90.10
2019-03-20T20:00:56.159Z,93.93
2019-03-20T20:03:25.175Z,116.00
2019-03-20T20:05:55.602Z,137.77
2019-03-20T20:08:24.726Z,142.57
2019-03-20T20:10:53.685Z,146.13
2019-03-20T20:13:22.818Z,119.30
2019-03-20T20:15:51.802Z,121.63
2019-03-20T20:18:21.395Z,124.00
2019-03-20T20:20:50.535Z,176.47
2019-03-20T20:23:21.137Z,186.77
2019-03-20T20:25:51.898Z,165.40
2019-03-20T20:28:21.309Z,185.13
2019-03-20T20:30:50.414Z,159.20
2019-03-20T20:33:19.458Z,164.73
2019-03-20T20:35:48.669Z,157.57
2019-03-20T20:38:17.536Z,167.50
2019-03-20T20:40:46.407Z,169.50
2019-03-20T20:43:15.618Z,135.70
2019-03-20T20:45:44.445Z,159.77
2019-03-20T20:48:13.663Z,161.07
2019-03-20T20:50:42.844Z,140.53
2019-03-20T20:53:11.781Z,138.20
2019-03-20T20:55:41.033Z,118.83
2019-03-20T20:58:10.074Z,127.90
2019-03-20T21:00:39.014Z,103.17
2019-03-20T21:03:08.578Z,100.07
2019-03-20T21:05:38.068Z,101.37
2019-03-20T21:08:06.872Z,125.03
2019-03-20T21:10:56.955Z,141.30
2019-03-20T21:13:26.121Z,131.47
2019-03-20T21:15:55.497Z,113.70
2019-03-20T21:18:44.290Z,99.93
2019-03-20T21:21:13.630Z,88.20
2019-03-20T21:24:19.315Z,130.50
2019-03-20T21:27:06.455Z,119.97
2019-03-20T21:30:13.027Z,100.50
2019-03-20T21:32:50.126Z,106.77
2019-03-20T21:35:47.420Z,72.07
2019-03-20T21:38:15.262Z,91.40
2019-03-20T21:41:02.079Z,140.40
2019-03-20T21:43:56.856Z,103.40
2019-03-20T21:46:56.924Z,104.87
2019-03-20T21:49:25.830Z,92.63
2019-03-20T21:51:55.017Z,88.30
2019-03-20T21:54:46.642Z,145.27
2019-03-20T21:57:36.021Z,111.37
2019-03-20T22:00:17.582Z,102.77
2019-03-20T22:02:46.724Z,121.90
2019-03-20T22:05:35.094Z,128.27
2019-03-20T22:08:03.733Z,114.23
2019-03-20T22:10:58.174Z,149.50
2019-03-20T22:13:29.939Z,181.33
2019-03-20T22:16:18.190Z,184.80
2019-03-20T22:19:04.912Z,157.03
2019-03-20T22:21:39.493Z,137.33
2019-03-20T22:24:22.933Z,150.27
2019-03-20T22:27:12.889Z,173.17
2019-03-20T22:29:41.606Z,157.13
2019-03-20T22:32:25.464Z,178.03
2019-03-20T22:35:18.476Z,202.47
2019-03-20T22:37:47.661Z,187.57
2019-03-20T22:40:37.355Z,188.10
2019-03-20T22:43:12.255Z,150.37
2019-03-20T22:46:01.795Z,178.93
2019-03-20T22:48:50.231Z,182.13
2019-03-20T22:51:47.314Z,154.77
2019-03-20T22:54:45.910Z,173.90
2019-03-20T22:57:23.315Z,146.43
2019-03-20T22:59:52.318Z,144.33
2019-03-20T23:02:38.875Z,183.07
2019-03-20T23:05:10.131Z,174.63
2019-03-20T23:07:39.083Z,189.23
2019-03-20T23:10:11.089Z,158.07
2019-03-20T23:12:39.694Z,139.70
2019-03-20T23:15:11.446Z,131.30
2019-03-20T23:17:40.172Z,135.67
2019-03-20T23:20:24.054Z,200.37
2019-03-20T23:22:52.728Z,171.83
2019-03-20T23:25:21.303Z,190.53
2019-03-20T23:27:50.000Z,157.23
2019-03-20T23:30:29.559Z,138.67
2019-03-20T23:32:58.153Z,158.93
2019-03-20T23:35:27.171Z,134.97
2019-03-20T23:37:55.763Z,114.10
2019-03-20T23:40:24.358Z,123.07
2019-03-20T23:42:59.300Z,106.30
2019-03-20T23:45:27.989Z,111.30
2019-03-20T23:48:03.014Z,110.10
2019-03-20T23:50:31.541Z,93.10
2019-03-20T23:53:00.217Z,123.50
2019-03-20T23:55:28.750Z,133.93
2019-03-20T23:57:57.325Z,129.87
